createdAt,value
2018-08-06T00:00:26.860Z,0.00
2018-08-06T00:01:27.049Z,0.00
2018-08-06T00:02:27.227Z,0.00
2018-08-06T00:03:27.412Z,0.00
2018-08-06T00:04:27.583Z,0.00
2018-08-06T00:05:27.757Z,0.00
2018-08-06T00:06:27.936Z,0.00
2018-08-06T00:07:28.125Z,0.00
2018-08-06T00:08:28.301Z,0.00
2018-08-06T00:09:28.485Z,0.00
2018-08-06T00:10:28.669Z,0.00
2018-08-06T00:11:28.858Z,0.00
2018-08-06T00:12:29.039Z,0.00
2018-08-06T00:13:29.224Z,0.00
2018-08-06T00:14:29.406Z,0.00
2018-08-06T00:15:29.582Z,0.00
2018-08-06T00:16:29.760Z,0.00
2018-08-06T00:17:29.941Z,0.00
2018-08-06T00:18:30.130Z,0.00
2018-08-06T00:19:30.298Z,0.00
2018-08-06T00:20:30.474Z,0.00
2018-08-06T00:21:30.654Z,0.00
2018-08-06T00:22:30.835Z,0.00
2018-08-06T00:23:31.014Z,0.00
2018-08-06T00:24:31.189Z,0.00
2018-08-06T00:25:31.372Z,0.00
2018-08-06T00:26:31.553Z,0.00
2018-08-06T00:27:31.733Z,0.00
2018-08-06T00:28:31.912Z,0.00
2018-08-06T00:29:32.118Z,0.00
2018-08-06T00:30:32.270Z,0.00
2018-08-06T00:31:32.460Z,0.00
2018-08-06T00:32:32.634Z,0.00
2018-08-06T00:33:32.813Z,0.00
2018-08-06T00:34:32.993Z,0.00
2018-08-06T00:35:33.179Z,0.00
2018-08-06T00:36:33.357Z,0.00
2018-08-06T00:37:33.538Z,0.00
2018-08-06T00:38:33.721Z,0.00
2018-08-06T00:39:33.898Z,0.00
2018-08-06T00:40:34.082Z,0.00
2018-08-06T00:41:34.261Z,0.00
2018-08-06T00:42:34.436Z,0.00
2018-08-06T00:43:34.613Z,0.00
2018-08-06T00:44:34.788Z,0.00
2018-08-06T00:45:35.052Z,0.00
2018-08-06T00:46:35.160Z,0.00
2018-08-06T00:47:35.340Z,0.00
2018-08-06T00:48:35.514Z,0.00
2018-08-06T00:49:35.694Z,0.00
2018-08-06T00:50:35.867Z,0.00
2018-08-06T00:51:36.041Z,0.00
2018-08-06T00:52:36.211Z,0.00
2018-08-06T00:53:36.388Z,0.00
2018-08-06T00:54:36.570Z,0.00
2018-08-06T00:55:36.755Z,0.00
2018-08-06T00:56:36.930Z,0.00
2018-08-06T00:57:37.110Z,0.00
2018-08-06T00:58:37.285Z,0.00
2018-08-06T00:59:37.472Z,0.00
2018-08-06T01:00:37.651Z,0.00
2018-08-06T01:01:37.863Z,0.00
2018-08-06T01:02:38.002Z,0.00
2018-08-06T01:03:38.180Z,0.00
2018-08-06T01:04:38.354Z,0.00
2018-08-06T01:05:38.537Z,0.00
2018-08-06T01:06:38.717Z,0.00
2018-08-06T01:07:38.892Z,0.00
2018-08-06T01:08:39.075Z,0.00
2018-08-06T01:09:39.253Z,0.00
2018-08-06T01:10:39.429Z,0.00
2018-08-06T01:11:39.607Z,0.00
2018-08-06T01:12:39.790Z,0.00
2018-08-06T01:13:39.971Z,0.00
2018-08-06T01:14:40.164Z,0.00
2018-08-06T01:15:40.353Z,0.00
2018-08-06T01:16:40.558Z,0.00
2018-08-06T01:17:40.733Z,0.00
2018-08-06T01:18:40.914Z,0.00
2018-08-06T01:19:41.098Z,0.00
2018-08-06T01:20:41.267Z,0.00
2018-08-06T01:21:41.451Z,0.00
2018-08-06T01:22:41.633Z,0.00
2018-08-06T01:23:41.807Z,0.00
2018-08-06T01:24:41.989Z,0.00
2018-08-06T01:25:42.167Z,0.00
2018-08-06T01:26:42.354Z,0.00
2018-08-06T01:27:42.527Z,0.00
2018-08-06T01:28:42.712Z,0.00
2018-08-06T01:29:42.897Z,0.00
2018-08-06T01:30:43.070Z,0.00
2018-08-06T01:31:43.252Z,0.00
2018-08-06T01:32:43.433Z,0.00
2018-08-06T01:33:43.620Z,0.00
2018-08-06T01:34:43.799Z,0.00
2018-08-06T01:35:43.984Z,0.00
2018-08-06T01:36:44.164Z,0.00
2018-08-06T01:37:44.336Z,0.00
2018-08-06T01:38:44.514Z,0.00
2018-08-06T01:39:44.690Z,0.00
2018-08-06T01:40:44.866Z,0.00
2018-08-06T01:41:45.044Z,0.00
2018-08-06T01:42:45.216Z,0.00
2018-08-06T01:43:45.397Z,0.00
2018-08-06T01:44:45.573Z,0.00
2018-08-06T01:45:45.807Z,0.00
2018-08-06T01:46:45.953Z,0.00
2018-08-06T01:47:46.129Z,0.00
2018-08-06T01:48:46.299Z,0.00
2018-08-06T01:49:46.473Z,0.00
2018-08-06T01:50:46.652Z,0.00
2018-08-06T01:51:46.822Z,0.00
2018-08-06T01:52:46.998Z,0.00
2018-08-06T01:53:47.180Z,0.00
2018-08-06T01:54:47.359Z,0.00
2018-08-06T01:55:47.534Z,0.00
2018-08-06T01:56:47.711Z,0.00
2018-08-06T01:57:47.900Z,0.00
2018-08-06T01:58:48.081Z,0.00
2018-08-06T01:59:48.254Z,0.00
2018-08-06T02:00:48.435Z,0.00
2018-08-06T02:01:48.612Z,0.00
2018-08-06T02:02:48.794Z,0.00
2018-08-06T02:03:48.964Z,0.00
2018-08-06T02:04:49.154Z,0.00
2018-08-06T02:05:49.332Z,0.00
2018-08-06T02:06:49.512Z,0.00
2018-08-06T02:07:49.688Z,0.00
2018-08-06T02:08:49.862Z,0.00
2018-08-06T02:09:50.046Z,0.00
2018-08-06T02:10:50.225Z,0.00
2018-08-06T02:11:50.396Z,0.00
2018-08-06T02:12:50.572Z,0.00
2018-08-06T02:13:50.755Z,0.00
2018-08-06T02:14:50.935Z,0.00
2018-08-06T02:15:51.110Z,0.00
2018-08-06T02:16:51.278Z,0.00
2018-08-06T02:17:51.453Z,0.00
2018-08-06T02:18:51.628Z,0.00
2018-08-06T02:19:51.813Z,0.00
2018-08-06T02:20:51.990Z,0.00
2018-08-06T02:21:52.166Z,0.00
2018-08-06T02:22:52.351Z,0.00
2018-08-06T02:23:52.533Z,0.00
2018-08-06T02:24:52.729Z,0.00
2018-08-06T02:25:52.887Z,0.00
2018-08-06T02:26:53.066Z,0.00
2018-08-06T02:27:53.232Z,0.00
2018-08-06T02:28:53.408Z,0.00
2018-08-06T02:29:53.585Z,0.00
2018-08-06T02:30:53.763Z,0.00
2018-08-06T02:31:53.942Z,0.00
2018-08-06T02:32:54.121Z,0.00
2018-08-06T02:33:54.300Z,0.00
2018-08-06T02:34:54.473Z,0.00
2018-08-06T02:35:54.652Z,0.00
2018-08-06T02:36:54.832Z,0.00
2018-08-06T02:37:55.010Z,0.00
2018-08-06T02:38:55.194Z,0.00
2018-08-06T02:39:55.371Z,0.00
2018-08-06T02:40:55.549Z,0.00
2018-08-06T02:41:55.722Z,0.00
2018-08-06T02:42:55.900Z,0.00
2018-08-06T02:43:56.083Z,0.00
2018-08-06T02:44:56.273Z,0.00
2018-08-06T02:45:56.440Z,0.00
2018-08-06T02:46:56.613Z,0.00
2018-08-06T02:47:56.789Z,0.00
2018-08-06T02:48:56.971Z,0.00
2018-08-06T02:49:57.151Z,0.00
2018-08-06T02:50:57.330Z,0.00
2018-08-06T02:51:57.512Z,0.00
2018-08-06T02:52:57.690Z,0.00
2018-08-06T02:53:57.873Z,0.00
2018-08-06T02:54:58.053Z,0.00
2018-08-06T02:55:58.233Z,0.00
2018-08-06T02:56:58.406Z,0.00
2018-08-06T02:57:58.583Z,0.00
2018-08-06T02:58:58.765Z,0.00
2018-08-06T02:59:58.950Z,0.00
2018-08-06T03:00:59.132Z,0.00
2018-08-06T03:01:59.312Z,0.00
2018-08-06T03:02:59.484Z,0.00
2018-08-06T03:03:59.667Z,0.00
2018-08-06T03:04:59.844Z,0.00
2018-08-06T03:06:00.024Z,0.00
2018-08-06T03:07:00.203Z,0.00
2018-08-06T03:08:00.390Z,0.00
2018-08-06T03:09:00.568Z,0.00
2018-08-06T03:10:00.784Z,0.00
2018-08-06T03:11:00.925Z,0.00
2018-08-06T03:12:01.107Z,0.00
2018-08-06T03:13:01.275Z,0.00
2018-08-06T03:14:01.464Z,0.00
2018-08-06T03:15:01.637Z,0.00
2018-08-06T03:16:01.819Z,0.00
2018-08-06T03:17:02.013Z,0.00
2018-08-06T03:18:02.168Z,0.00
2018-08-06T03:19:02.339Z,0.00
2018-08-06T03:20:02.521Z,0.00
2018-08-06T03:21:02.698Z,0.00
2018-08-06T03:22:02.874Z,0.00
2018-08-06T03:23:03.055Z,0.00
2018-08-06T03:24:03.236Z,0.00
2018-08-06T03:25:03.417Z,0.00
2018-08-06T03:26:03.590Z,0.00
2018-08-06T03:27:03.770Z,0.00
2018-08-06T03:28:03.952Z,0.00
2018-08-06T03:29:04.132Z,0.00
2018-08-06T03:30:04.309Z,0.00
2018-08-06T03:31:04.491Z,0.00
2018-08-06T03:32:04.675Z,0.00
2018-08-06T03:33:04.868Z,0.00
2018-08-06T03:34:05.062Z,0.00
2018-08-06T03:35:05.239Z,0.00
2018-08-06T03:36:05.428Z,0.00
2018-08-06T03:37:05.607Z,0.00
2018-08-06T03:38:05.798Z,0.00
2018-08-06T03:39:05.981Z,0.00
2018-08-06T03:40:06.203Z,0.00
2018-08-06T03:41:06.340Z,0.00
2018-08-06T03:42:06.519Z,0.00
2018-08-06T03:43:06.696Z,0.00
2018-08-06T03:44:06.881Z,0.00
2018-08-06T03:45:07.060Z,0.00
2018-08-06T03:46:07.241Z,0.00
2018-08-06T03:47:07.431Z,0.00
2018-08-06T03:48:07.605Z,0.00
2018-08-06T03:49:07.800Z,0.00
2018-08-06T03:50:07.973Z,0.00
2018-08-06T03:51:08.157Z,0.00
2018-08-06T03:52:08.340Z,0.00
2018-08-06T03:53:08.518Z,0.00
2018-08-06T03:54:08.704Z,0.00
2018-08-06T03:55:08.882Z,0.00
2018-08-06T03:56:09.066Z,0.00
2018-08-06T03:57:09.238Z,0.00
2018-08-06T03:58:09.417Z,0.00
2018-08-06T03:59:09.593Z,0.00
2018-08-06T04:00:09.771Z,0.00
2018-08-06T04:01:09.956Z,0.00
2018-08-06T04:02:10.139Z,0.00
2018-08-06T04:03:10.324Z,0.00
2018-08-06T04:04:11.988Z,0.00
2018-08-06T04:05:10.669Z,0.00
2018-08-06T04:06:10.850Z,0.00
2018-08-06T04:07:11.023Z,5.63
2018-08-06T04:08:11.204Z,5.63
2018-08-06T04:09:11.381Z,5.63
2018-08-06T04:10:11.553Z,5.63
2018-08-06T04:11:11.746Z,5.63
2018-08-06T04:12:11.927Z,5.63
2018-08-06T04:13:12.104Z,5.63
2018-08-06T04:14:12.281Z,5.63
2018-08-06T04:15:12.463Z,5.63
2018-08-06T04:16:12.646Z,5.63
2018-08-06T04:17:12.823Z,5.63
2018-08-06T04:18:13.018Z,5.63
2018-08-06T04:19:13.200Z,5.63
2018-08-06T04:20:13.374Z,5.63
2018-08-06T04:21:13.554Z,5.63
2018-08-06T04:22:13.737Z,11.25
2018-08-06T04:23:13.922Z,11.25
2018-08-06T04:24:14.105Z,11.25
2018-08-06T04:25:14.565Z,11.25
2018-08-06T04:26:14.497Z,11.25
2018-08-06T04:27:14.677Z,11.25
2018-08-06T04:28:14.859Z,11.25
2018-08-06T04:29:20.838Z,11.25
2018-08-06T04:30:16.629Z,11.25
2018-08-06T04:31:16.633Z,11.25
2018-08-06T04:32:16.798Z,11.25
2018-08-06T04:33:18.164Z,11.25
2018-08-06T04:34:18.022Z,11.25
2018-08-06T04:35:18.675Z,11.25
2018-08-06T04:36:18.680Z,11.25
2018-08-06T04:37:16.415Z,11.25
2018-08-06T04:38:16.596Z,11.25
2018-08-06T04:39:16.801Z,11.25
2018-08-06T04:40:18.951Z,16.88
2018-08-06T04:41:18.859Z,16.88
2018-08-06T04:42:17.255Z,16.88
2018-08-06T04:43:17.433Z,16.88
2018-08-06T04:44:17.608Z,16.88
2018-08-06T04:45:17.784Z,16.88
2018-08-06T04:46:17.962Z,16.88
2018-08-06T04:47:18.343Z,16.88
2018-08-06T04:48:18.603Z,16.88
2018-08-06T04:49:18.670Z,16.88
2018-08-06T04:50:18.624Z,16.88
2018-08-06T04:51:18.804Z,16.88
2018-08-06T04:52:18.985Z,16.88
2018-08-06T04:53:19.177Z,16.88
2018-08-06T04:54:19.357Z,22.50
2018-08-06T04:55:19.566Z,22.50
2018-08-06T04:56:19.755Z,22.50
2018-08-06T04:57:19.938Z,22.50
2018-08-06T04:58:20.486Z,22.50
2018-08-06T04:59:20.277Z,22.50
2018-08-06T05:00:20.460Z,22.50
2018-08-06T05:01:20.651Z,28.13
2018-08-06T05:02:20.836Z,28.13
2018-08-06T05:03:21.276Z,28.13
2018-08-06T05:04:21.178Z,33.75
2018-08-06T05:05:21.504Z,33.75
2018-08-06T05:06:21.608Z,33.75
2018-08-06T05:07:21.758Z,39.38
2018-08-06T05:08:21.942Z,39.38
2018-08-06T05:09:22.129Z,45.00
2018-08-06T05:10:22.311Z,45.00
2018-08-06T05:11:22.502Z,45.00
2018-08-06T05:12:22.667Z,50.63
2018-08-06T05:13:22.858Z,50.63
2018-08-06T05:14:23.031Z,56.25
2018-08-06T05:15:23.205Z,56.25
2018-08-06T05:16:23.396Z,61.88
2018-08-06T05:17:23.632Z,61.88
2018-08-06T05:18:23.800Z,61.88
2018-08-06T05:19:24.013Z,61.88
2018-08-06T05:20:24.174Z,67.50
2018-08-06T05:21:24.347Z,73.13
2018-08-06T05:22:24.532Z,78.75
2018-08-06T05:23:24.707Z,84.38
2018-08-06T05:24:24.895Z,84.38
2018-08-06T05:25:25.080Z,90.00
2018-08-06T05:26:25.281Z,95.63
2018-08-06T05:27:25.459Z,95.63
2018-08-06T05:28:25.630Z,95.63
2018-08-06T05:29:25.837Z,101.25
2018-08-06T05:30:26.025Z,101.25
2018-08-06T05:31:26.204Z,101.25
2018-08-06T05:32:26.384Z,95.63
2018-08-06T05:33:26.562Z,90.00
2018-08-06T05:34:26.756Z,73.13
2018-08-06T05:35:26.948Z,73.13
2018-08-06T05:36:27.151Z,73.13
2018-08-06T05:37:27.336Z,78.75
2018-08-06T05:38:27.515Z,73.13
2018-08-06T05:39:27.691Z,73.13
2018-08-06T05:40:27.868Z,73.13
2018-08-06T05:41:28.088Z,67.50
2018-08-06T05:42:28.244Z,61.88
2018-08-06T05:43:28.423Z,56.25
2018-08-06T05:44:28.601Z,56.25
2018-08-06T05:45:28.793Z,56.25
2018-08-06T05:46:28.998Z,50.63
2018-08-06T05:47:29.184Z,45.00
2018-08-06T05:48:29.368Z,45.00
2018-08-06T05:49:29.549Z,39.38
2018-08-06T05:50:29.730Z,33.75
2018-08-06T05:51:29.918Z,33.75
2018-08-06T05:52:30.098Z,28.13
2018-08-06T05:53:30.284Z,28.13
2018-08-06T05:54:30.465Z,28.13
2018-08-06T05:55:30.653Z,28.13
2018-08-06T05:56:30.829Z,28.13
2018-08-06T05:57:31.007Z,33.75
2018-08-06T05:58:31.190Z,33.75
2018-08-06T05:59:31.369Z,45.00
2018-08-06T06:00:31.544Z,45.00
2018-08-06T06:01:31.729Z,101.25
2018-08-06T06:02:31.918Z,106.88
2018-08-06T06:03:32.107Z,106.88
2018-08-06T06:04:32.287Z,106.88
2018-08-06T06:05:32.540Z,106.88
2018-08-06T06:06:32.751Z,106.88
2018-08-06T06:07:32.828Z,106.88
2018-08-06T06:08:40.600Z,106.88
2018-08-06T06:09:40.627Z,106.88
2018-08-06T06:10:33.311Z,106.88
2018-08-06T06:11:33.482Z,106.88
2018-08-06T06:12:33.695Z,106.88
2018-08-06T06:13:33.873Z,106.88
2018-08-06T06:14:34.065Z,106.88
2018-08-06T06:15:42.017Z,106.88
2018-08-06T06:16:34.468Z,106.88
2018-08-06T06:17:34.644Z,106.88
2018-08-06T06:18:34.841Z,106.88
2018-08-06T06:19:35.036Z,106.88
2018-08-06T06:20:35.219Z,106.88
2018-08-06T06:21:35.579Z,106.88
2018-08-06T06:22:35.625Z,101.25
2018-08-06T06:23:35.814Z,101.25
2018-08-06T06:24:35.997Z,101.25
2018-08-06T06:25:36.226Z,101.25
2018-08-06T06:26:36.434Z,101.25
2018-08-06T06:27:36.658Z,101.25
2018-08-06T06:28:36.879Z,101.25
2018-08-06T06:29:37.104Z,101.25
2018-08-06T06:30:37.506Z,101.25
2018-08-06T06:31:37.494Z,101.25
2018-08-06T06:32:37.555Z,101.25
2018-08-06T06:33:37.609Z,106.88
2018-08-06T06:34:37.886Z,112.50
2018-08-06T06:35:37.990Z,112.50
2018-08-06T06:36:38.166Z,123.75
2018-08-06T06:37:38.352Z,129.38
2018-08-06T06:38:38.548Z,140.63
2018-08-06T06:39:38.762Z,146.25
2018-08-06T06:40:38.987Z,157.50
2018-08-06T06:41:39.855Z,168.75
2018-08-06T06:42:39.264Z,174.38
2018-08-06T06:43:39.451Z,180.00
2018-08-06T06:44:39.684Z,196.88
2018-08-06T06:45:39.791Z,202.50
2018-08-06T06:46:39.882Z,202.50
2018-08-06T06:47:39.959Z,174.38
2018-08-06T06:48:40.148Z,151.88
2018-08-06T06:49:40.327Z,146.25
2018-08-06T06:50:40.519Z,140.63
2018-08-06T06:51:40.803Z,129.38
2018-08-06T06:52:40.880Z,129.38
2018-08-06T06:53:41.099Z,123.75
2018-08-06T06:54:41.186Z,123.75
2018-08-06T06:55:41.374Z,112.50
2018-08-06T06:56:41.550Z,112.50
2018-08-06T06:57:41.731Z,106.88
2018-08-06T06:58:41.915Z,101.25
2018-08-06T06:59:42.101Z,106.88
2018-08-06T07:00:42.294Z,101.25
2018-08-06T07:01:42.480Z,106.88
2018-08-06T07:02:42.657Z,106.88
2018-08-06T07:03:42.847Z,101.25
2018-08-06T07:04:43.033Z,106.88
2018-08-06T07:05:43.211Z,118.13
2018-08-06T07:06:43.453Z,140.63
2018-08-06T07:07:43.757Z,174.38
2018-08-06T07:08:43.775Z,174.38
2018-08-06T07:09:44.026Z,168.75
2018-08-06T07:10:44.204Z,135.00
2018-08-06T07:11:44.392Z,135.00
2018-08-06T07:12:44.583Z,157.50
2018-08-06T07:13:44.841Z,146.25
2018-08-06T07:14:44.985Z,101.25
2018-08-06T07:15:45.212Z,129.38
2018-08-06T07:16:45.405Z,123.75
2018-08-06T07:17:45.601Z,73.13
2018-08-06T07:18:45.777Z,101.25
2018-08-06T07:19:45.988Z,106.88
2018-08-06T07:20:46.189Z,112.50
2018-08-06T07:21:46.377Z,112.50
2018-08-06T07:22:47.273Z,112.50
2018-08-06T07:23:46.847Z,112.50
2018-08-06T07:24:47.080Z,112.50
2018-08-06T07:25:47.066Z,112.50
2018-08-06T07:26:47.296Z,118.13
2018-08-06T07:27:47.393Z,123.75
2018-08-06T07:28:47.581Z,129.38
2018-08-06T07:29:47.769Z,135.00
2018-08-06T07:30:48.671Z,140.63
2018-08-06T07:31:49.073Z,146.25
2018-08-06T07:32:48.394Z,157.50
2018-08-06T07:33:48.630Z,163.13
2018-08-06T07:34:48.777Z,168.75
2018-08-06T07:35:48.959Z,180.00
2018-08-06T07:36:49.135Z,185.63
2018-08-06T07:37:49.496Z,202.50
2018-08-06T07:38:50.043Z,129.38
2018-08-06T07:39:49.738Z,196.88
2018-08-06T07:40:49.798Z,208.13
2018-08-06T07:41:50.015Z,208.13
2018-08-06T07:42:50.192Z,225.00
2018-08-06T07:43:50.628Z,264.38
2018-08-06T07:44:50.606Z,292.50
2018-08-06T07:45:50.792Z,326.25
2018-08-06T07:46:50.976Z,405.00
2018-08-06T07:47:51.171Z,556.88
2018-08-06T07:48:51.348Z,781.88
2018-08-06T07:49:51.748Z,1046.25
2018-08-06T07:50:51.732Z,1316.25
2018-08-06T07:51:51.919Z,1530.00
2018-08-06T07:52:52.112Z,1681.88
2018-08-06T07:53:52.540Z,1777.50
2018-08-06T07:54:52.534Z,1873.13
2018-08-06T07:55:52.719Z,1951.88
2018-08-06T07:56:52.904Z,2002.50
2018-08-06T07:57:53.089Z,2058.75
2018-08-06T07:58:53.302Z,2092.50
2018-08-06T07:59:53.467Z,2137.50
2018-08-06T08:00:53.674Z,2154.38
2018-08-06T08:01:54.540Z,2171.25
2018-08-06T08:02:53.999Z,2199.38
2018-08-06T08:03:54.186Z,2233.13
2018-08-06T08:04:54.381Z,2272.50
2018-08-06T08:05:54.572Z,2266.88
2018-08-06T08:06:54.769Z,2278.13
2018-08-06T08:07:54.966Z,2283.75
2018-08-06T08:08:55.139Z,2295.00
2018-08-06T08:09:55.475Z,2295.00
2018-08-06T08:10:55.553Z,2289.38
2018-08-06T08:11:55.943Z,2278.13
2018-08-06T08:12:55.885Z,2261.25
2018-08-06T08:13:56.076Z,2250.00
2018-08-06T08:14:56.288Z,2233.13
2018-08-06T08:15:56.500Z,2216.25
2018-08-06T08:16:56.678Z,2210.63
2018-08-06T08:17:57.410Z,2193.75
2018-08-06T08:18:57.135Z,2171.25
2018-08-06T08:19:57.372Z,2137.50
2018-08-06T08:20:57.575Z,2115.00
2018-08-06T08:21:57.748Z,2086.88
2018-08-06T08:22:57.953Z,2058.75
2018-08-06T08:23:58.137Z,2013.75
2018-08-06T08:24:58.324Z,1991.25
2018-08-06T08:25:58.513Z,1946.25
2018-08-06T08:26:58.705Z,1906.88
2018-08-06T08:27:58.904Z,1878.75
2018-08-06T08:28:59.085Z,1845.00
2018-08-06T08:29:59.269Z,1811.25
2018-08-06T08:30:59.469Z,1777.50
2018-08-06T08:31:59.893Z,1726.88
2018-08-06T08:32:59.828Z,1687.50
2018-08-06T08:34:00.056Z,1648.13
2018-08-06T08:35:00.268Z,1620.00
2018-08-06T08:36:00.403Z,1580.63
2018-08-06T08:37:00.703Z,1546.88
2018-08-06T08:38:00.934Z,1507.50
2018-08-06T08:39:00.951Z,1473.75
2018-08-06T08:40:01.138Z,1445.63
2018-08-06T08:41:01.335Z,1406.25
2018-08-06T08:42:01.581Z,1378.13
2018-08-06T08:43:01.747Z,1361.25
2018-08-06T08:44:01.959Z,1327.50
2018-08-06T08:45:02.159Z,1299.38
2018-08-06T08:46:02.453Z,1288.13
2018-08-06T08:47:02.531Z,1260.00
2018-08-06T08:48:02.727Z,1254.38
2018-08-06T08:49:02.903Z,1220.63
2018-08-06T08:50:03.090Z,1209.38
2018-08-06T08:51:03.287Z,1198.13
2018-08-06T08:52:03.496Z,1186.88
2018-08-06T08:53:03.683Z,1198.13
2018-08-06T08:54:04.112Z,1237.50
2018-08-06T08:55:04.147Z,1299.38
2018-08-06T08:56:04.352Z,1333.13
2018-08-06T08:57:04.571Z,1344.38
2018-08-06T08:58:04.808Z,1338.75
2018-08-06T08:59:04.877Z,1333.13
2018-08-06T09:00:05.067Z,1321.88
2018-08-06T09:01:05.266Z,1338.75
2018-08-06T09:02:05.441Z,1344.38
2018-08-06T09:03:05.643Z,1344.38
2018-08-06T09:04:05.830Z,1361.25
2018-08-06T09:05:06.027Z,1389.38
2018-08-06T09:06:06.216Z,1428.75
2018-08-06T09:07:06.414Z,1496.25
2018-08-06T09:08:06.619Z,1681.88
2018-08-06T09:09:06.820Z,1996.88
2018-08-06T09:10:07.138Z,2458.13
2018-08-06T09:11:07.268Z,5225.63
2018-08-06T09:12:07.733Z,7762.50
2018-08-06T09:13:07.982Z,6091.88
2018-08-06T09:14:08.038Z,5141.25
2018-08-06T09:15:07.981Z,4837.50
2018-08-06T09:16:08.288Z,4646.25
2018-08-06T09:17:08.405Z,4635.00
2018-08-06T09:18:08.609Z,4725.00
2018-08-06T09:19:08.803Z,4680.00
2018-08-06T09:20:09.007Z,4770.00
2018-08-06T09:21:09.240Z,4882.50
2018-08-06T09:22:09.391Z,4820.63
2018-08-06T09:23:09.582Z,4916.25
2018-08-06T09:24:09.787Z,4803.75
2018-08-06T09:25:09.968Z,5400.00
2018-08-06T09:26:10.211Z,5467.50
2018-08-06T09:27:10.277Z,4781.25
2018-08-06T09:28:10.487Z,3465.00
2018-08-06T09:29:10.665Z,2379.38
2018-08-06T09:30:10.854Z,1771.88
2018-08-06T09:31:11.085Z,1665.00
2018-08-06T09:32:11.283Z,1586.25
2018-08-06T09:33:11.479Z,1513.13
2018-08-06T09:34:11.668Z,1451.25
2018-08-06T09:35:11.861Z,1406.25
2018-08-06T09:36:12.052Z,1361.25
2018-08-06T09:37:12.265Z,1316.25
2018-08-06T09:38:12.497Z,1305.00
2018-08-06T09:39:12.736Z,1293.75
2018-08-06T09:40:13.519Z,1288.13
2018-08-06T09:41:13.216Z,1276.88
2018-08-06T09:42:13.178Z,1254.38
2018-08-06T09:43:13.374Z,1231.88
2018-08-06T09:44:13.572Z,1209.38
2018-08-06T09:45:13.759Z,1192.50
2018-08-06T09:46:14.063Z,1175.63
2018-08-06T09:47:14.098Z,1130.63
2018-08-06T09:48:14.295Z,1096.88
2018-08-06T09:49:14.532Z,1074.38
2018-08-06T09:50:14.687Z,1051.88
2018-08-06T09:51:15.189Z,1029.38
2018-08-06T09:52:15.030Z,1012.50
2018-08-06T09:53:15.220Z,984.38
2018-08-06T09:54:15.415Z,961.88
2018-08-06T09:55:15.610Z,945.00
2018-08-06T09:56:15.891Z,939.38
2018-08-06T09:57:16.031Z,933.75
2018-08-06T09:58:16.267Z,922.50
2018-08-06T09:59:16.434Z,911.25
2018-08-06T10:00:16.623Z,911.25
2018-08-06T10:01:16.815Z,905.63
2018-08-06T10:02:17.003Z,916.88
2018-08-06T10:03:17.195Z,916.88
2018-08-06T10:04:17.384Z,933.75
2018-08-06T10:05:17.594Z,939.38
2018-08-06T10:06:17.914Z,945.00
2018-08-06T10:07:17.975Z,961.88
2018-08-06T10:08:18.162Z,973.13
2018-08-06T10:09:18.351Z,1001.25
2018-08-06T10:10:18.536Z,1018.13
2018-08-06T10:11:19.276Z,1035.00
2018-08-06T10:12:18.891Z,1057.50
2018-08-06T10:13:19.089Z,1063.13
2018-08-06T10:14:19.291Z,1063.13
2018-08-06T10:15:19.484Z,1057.50
2018-08-06T10:16:19.664Z,1051.88
2018-08-06T10:17:19.864Z,1051.88
2018-08-06T10:18:20.050Z,1063.13
2018-08-06T10:19:20.385Z,1068.75
2018-08-06T10:20:20.428Z,1074.38
2018-08-06T10:21:20.622Z,1080.00
2018-08-06T10:22:20.818Z,1085.63
2018-08-06T10:23:21.013Z,1091.25
2018-08-06T10:24:21.199Z,1091.25
2018-08-06T10:25:21.401Z,1091.25
2018-08-06T10:26:21.583Z,1096.88
2018-08-06T10:27:21.772Z,1096.88
2018-08-06T10:28:21.963Z,1102.50
2018-08-06T10:29:22.160Z,1102.50
2018-08-06T10:30:22.441Z,1108.13
2018-08-06T10:31:22.553Z,1125.00
2018-08-06T10:32:22.745Z,1141.88
2018-08-06T10:33:22.934Z,1153.13
2018-08-06T10:34:23.131Z,1158.75
2018-08-06T10:35:23.323Z,1153.13
2018-08-06T10:36:23.519Z,1147.50
2018-08-06T10:37:23.713Z,1136.25
2018-08-06T10:38:23.901Z,1130.63
2018-08-06T10:39:24.093Z,1130.63
2018-08-06T10:40:24.303Z,1130.63
2018-08-06T10:41:24.486Z,1119.38
2018-08-06T10:42:24.717Z,1113.75
2018-08-06T10:43:25.252Z,1113.75
2018-08-06T10:44:25.115Z,1119.38
2018-08-06T10:45:25.342Z,1136.25
2018-08-06T10:46:25.551Z,1158.75
2018-08-06T10:47:25.764Z,1192.50
2018-08-06T10:48:26.037Z,1231.88
2018-08-06T10:49:26.165Z,1282.50
2018-08-06T10:50:26.377Z,1327.50
2018-08-06T10:51:26.581Z,1316.25
2018-08-06T10:52:26.776Z,1260.00
2018-08-06T10:53:26.972Z,1209.38
2018-08-06T10:54:27.167Z,1170.00
2018-08-06T10:55:27.356Z,1136.25
2018-08-06T10:56:27.555Z,1136.25
2018-08-06T10:57:27.771Z,1113.75
2018-08-06T10:58:27.968Z,1063.13
2018-08-06T10:59:28.157Z,1006.88
2018-08-06T11:00:28.357Z,978.75
2018-08-06T11:01:28.540Z,961.88
2018-08-06T11:02:28.735Z,956.25
2018-08-06T11:03:28.932Z,961.88
2018-08-06T11:04:29.147Z,961.88
2018-08-06T11:05:29.334Z,961.88
2018-08-06T11:06:29.624Z,967.50
2018-08-06T11:07:29.773Z,990.00
2018-08-06T11:08:29.953Z,990.00
2018-08-06T11:09:30.148Z,1018.13
2018-08-06T11:10:30.345Z,1040.63
2018-08-06T11:11:30.547Z,1068.75
2018-08-06T11:12:30.733Z,1080.00
2018-08-06T11:13:30.926Z,1096.88
2018-08-06T11:14:31.196Z,1141.88
2018-08-06T11:15:31.306Z,1181.25
2018-08-06T11:16:31.526Z,1209.38
2018-08-06T11:17:33.291Z,1243.13
2018-08-06T11:18:32.991Z,1265.63
2018-08-06T11:19:33.770Z,1305.00
2018-08-06T11:20:33.137Z,1338.75
2018-08-06T11:21:32.457Z,1395.00
2018-08-06T11:22:33.884Z,1428.75
2018-08-06T11:23:35.233Z,1417.50
2018-08-06T11:24:34.855Z,1383.75
2018-08-06T11:25:34.388Z,1355.63
2018-08-06T11:26:34.622Z,1338.75
2018-08-06T11:27:34.645Z,1310.63
2018-08-06T11:28:34.915Z,1260.00
2018-08-06T11:29:37.163Z,1220.63
2018-08-06T11:30:36.767Z,1181.25
2018-08-06T11:31:34.441Z,1158.75
2018-08-06T11:32:35.352Z,1119.38
2018-08-06T11:33:36.854Z,1085.63
2018-08-06T11:34:37.416Z,1051.88
2018-08-06T11:35:36.411Z,1018.13
2018-08-06T11:36:35.119Z,995.63
2018-08-06T11:37:35.317Z,978.75
2018-08-06T11:38:38.849Z,956.25
2018-08-06T11:39:36.659Z,945.00
2018-08-06T11:40:37.639Z,928.13
2018-08-06T11:41:39.273Z,916.88
2018-08-06T11:42:37.581Z,905.63
2018-08-06T11:43:37.495Z,905.63
2018-08-06T11:44:37.868Z,888.75
2018-08-06T11:45:38.289Z,883.13
2018-08-06T11:46:36.844Z,871.88
2018-08-06T11:47:37.209Z,866.25
2018-08-06T11:48:37.223Z,860.63
2018-08-06T11:49:37.415Z,798.75
2018-08-06T11:50:37.614Z,596.25
2018-08-06T11:51:37.819Z,405.00
2018-08-06T11:52:38.054Z,331.88
2018-08-06T11:53:38.245Z,315.00
2018-08-06T11:54:38.422Z,309.38
2018-08-06T11:55:38.613Z,303.75
2018-08-06T11:56:38.882Z,298.13
2018-08-06T11:57:38.998Z,286.88
2018-08-06T11:58:39.339Z,281.25
2018-08-06T11:59:39.601Z,270.00
2018-08-06T12:00:39.453Z,253.13
2018-08-06T12:01:39.652Z,236.25
2018-08-06T12:02:39.857Z,219.38
2018-08-06T12:03:40.031Z,202.50
2018-08-06T12:04:40.221Z,185.63
2018-08-06T12:05:40.408Z,168.75
2018-08-06T12:06:40.595Z,151.88
2018-08-06T12:07:40.834Z,135.00
2018-08-06T12:08:41.046Z,118.13
2018-08-06T12:09:41.201Z,101.25
2018-08-06T12:10:41.402Z,90.00
2018-08-06T12:11:41.584Z,84.38
2018-08-06T12:12:41.774Z,78.75
2018-08-06T12:13:41.970Z,73.13
2018-08-06T12:14:42.152Z,78.75
2018-08-06T12:15:42.442Z,78.75
2018-08-06T12:16:42.543Z,78.75
2018-08-06T12:17:42.693Z,78.75
2018-08-06T12:18:42.876Z,78.75
2018-08-06T12:19:43.067Z,78.75
2018-08-06T12:20:43.259Z,61.88
2018-08-06T12:21:43.468Z,73.13
2018-08-06T12:22:43.759Z,84.38
2018-08-06T12:23:43.877Z,78.75
2018-08-06T12:24:44.116Z,67.50
2018-08-06T12:25:44.189Z,73.13
2018-08-06T12:26:44.373Z,84.38
2018-08-06T12:27:44.620Z,84.38
2018-08-06T12:28:44.677Z,84.38
2018-08-06T12:29:44.899Z,84.38
2018-08-06T12:30:45.098Z,78.75
2018-08-06T12:31:45.302Z,78.75
2018-08-06T12:32:45.541Z,78.75
2018-08-06T12:33:45.625Z,78.75
2018-08-06T12:34:45.828Z,78.75
2018-08-06T12:35:46.036Z,73.13
2018-08-06T12:36:46.224Z,73.13
2018-08-06T12:37:46.404Z,73.13
2018-08-06T12:38:46.608Z,73.13
2018-08-06T12:39:46.809Z,73.13
2018-08-06T12:40:47.023Z,73.13
2018-08-06T12:41:47.298Z,73.13
2018-08-06T12:42:47.419Z,73.13
2018-08-06T12:43:47.596Z,73.13
2018-08-06T12:44:47.857Z,67.50